Time;durP1;ratioP1;P1;durP2;ratioP2;P2;SDS_P1;SDS_P2;PMS_P1;PMS_P2;Temp;Humidity;BMP_temperature;BMP_pressure;BME280_temperature;BME280_humidity;BME280_pressure;Samples;Min_cycle;Max_cycle;Signal;HPM_P1;HPM_P2
2023/03/20 00:01:16;;;;;;;8.10;6.75;;;14.40;91.40;;;;;;6220219;23;20362;-77
2023/03/20 00:03:42;;;;;;;9.20;8.05;;;14.40;91.20;;;;;;6245520;23;19996;-77
2023/03/20 00:06:18;;;;;;;7.10;6.40;;;14.30;91.10;;;;;;6242230;23;20075;-77
2023/03/20 00:08:46;;;;;;;8.43;7.20;;;14.30;91.10;;;;;;6242820;23;20000;-78
2023/03/20 00:11:28;;;;;;;8.80;7.30;;;14.30;91.10;;;;;;6246255;23;20000;-77
2023/03/20 00:13:57;;;;;;;9.90;7.68;;;14.30;91.10;;;;;;6217619;23;20008;-77
2023/03/20 00:16:26;;;;;;;10.50;7.25;;;14.30;91.10;;;;;;6245546;23;20007;-78
2023/03/20 00:18:51;;;;;;;9.68;7.78;;;14.20;91.10;;;;;;6246016;23;20004;-78
2023/03/20 00:21:18;;;;;;;10.85;7.88;;;14.20;91.20;;;;;;6245213;23;20452;-78
2023/03/20 00:23:44;;;;;;;9.02;7.57;;;14.20;91.30;;;;;;6244988;23;19996;-78
2023/03/20 00:26:17;;;;;;;9.98;8.15;;;14.20;91.30;;;;;;6218328;23;20011;-78
2023/03/20 00:28:47;;;;;;;9.57;7.95;;;14.20;91.20;;;;;;6246034;23;20075;-78
2023/03/20 00:31:24;;;;;;;9.18;7.82;;;14.20;91.00;;;;;;6246474;23;20480;-79
2023/03/20 00:33:50;;;;;;;9.80;8.52;;;14.10;91.00;;;;;;6219250;23;20079;-79
2023/03/20 00:36:16;;;;;;;9.88;7.93;;;14.10;91.00;;;;;;6244028;23;20076;-79
2023/03/20 00:38:42;;;;;;;10.27;8.43;;;14.10;91.00;;;;;;6245285;23;20367;-79
2023/03/20 00:41:38;;;;;;;8.98;7.82;;;14.10;91.10;;;;;;6245234;23;20030;-78
2023/03/20 00:44:08;;;;;;;10.45;8.88;;;14.10;91.10;;;;;;6245754;23;20024;-79
2023/03/20 00:46:37;;;;;;;9.75;8.20;;;14.00;91.10;;;;;;6245103;23;20008;-78
2023/03/20 00:49:03;;;;;;;9.68;8.07;;;14.00;91.10;;;;;;6245053;23;20000;-79
2023/03/20 00:51:28;;;;;;;11.35;8.23;;;14.00;91.00;;;;;;6245808;23;20008;-79
2023/03/20 00:53:54;;;;;;;10.10;8.45;;;14.00;91.00;;;;;;6245487;23;20004;-79
2023/03/20 00:56:34;;;;;;;10.55;8.30;;;14.10;91.10;;;;;;6245785;23;20004;-79
2023/03/20 00:59:02;;;;;;;13.82;9.30;;;14.10;91.00;;;;;;6246370;23;20054;-79
2023/03/20 01:01:30;;;;;;;13.10;9.80;;;14.10;90.70;;;;;;6246510;23;20395;-79
2023/03/20 01:03:56;;;;;;;14.20;9.48;;;14.10;90.50;;;;;;6245060;23;20418;-79
2023/03/20 01:06:22;;;;;;;13.25;10.05;;;14.10;90.20;;;;;;6244358;23;20051;-79
2023/03/20 01:08:47;;;;;;;12.52;9.65;;;14.10;90.00;;;;;;6244802;23;20004;-78
2023/03/20 01:11:15;;;;;;;11.52;9.00;;;14.10;89.70;;;;;;6245950;23;20019;-79
2023/03/20 01:13:43;;;;;;;11.02;8.63;;;14.10;89.60;;;;;;6245328;23;20015;-79
2023/03/20 01:16:24;;;;;;;11.25;9.05;;;14.10;89.80;;;;;;6244440;23;20000;-79
2023/03/20 01:18:50;;;;;;;10.63;8.52;;;14.00;89.40;;;;;;6217382;23;20028;-79
2023/03/20 01:21:17;;;;;;;10.10;8.38;;;14.00;89.80;;;;;;6244740;23;19996;-79
2023/03/20 01:23:44;;;;;;;15.52;8.88;;;14.00;89.60;;;;;;6217534;23;20438;-79
2023/03/20 01:26:35;;;;;;;10.73;9.18;;;14.00;89.10;;;;;;6244549;23;20383;-79
2023/03/20 01:29:02;;;;;;;13.32;9.88;;;14.10;89.40;;;;;;6244789;23;20007;-78
2023/03/20 01:31:27;;;;;;;13.32;10.55;;;14.00;89.30;;;;;;6245295;23;20007;-79
2023/03/20 01:33:53;;;;;;;13.68;9.93;;;14.00;89.20;;;;;;6218112;23;20004;-79
2023/03/20 01:36:21;;;;;;;13.65;10.88;;;14.00;89.00;;;;;;6245087;23;20012;-79
2023/03/20 01:38:56;;;;;;;10.30;9.20;;;14.00;89.00;;;;;;6245160;23;20410;-78
2023/03/20 01:41:26;;;;;;;12.63;10.05;;;14.00;89.20;;;;;;6219087;23;20004;-78
2023/03/20 01:43:52;;;;;;;12.38;10.15;;;14.00;89.70;;;;;;6244825;23;20005;-78
2023/03/20 01:46:28;;;;;;;14.75;11.25;;;14.00;89.80;;;;;;6245459;23;19997;-79
2023/03/20 01:49:07;;;;;;;14.20;11.10;;;14.00;89.80;;;;;;6245673;23;20414;-79
2023/03/20 01:51:35;;;;;;;11.90;10.60;;;14.00;90.10;;;;;;6245377;23;20004;-78
2023/03/20 01:54:15;;;;;;;13.57;11.25;;;14.00;90.20;;;;;;6245532;23;20411;-79
2023/03/20 01:56:56;;;;;;;12.70;10.65;;;13.90;90.30;;;;;;6245395;23;20004;-78
2023/03/20 01:59:23;;;;;;;;;;;13.90;90.40;;;;;;6245313;23;20334;-78
2023/03/20 02:01:50;;;;;;;11.60;10.40;;;13.90;90.40;;;;;;6244979;23;19907;-78
2023/03/20 02:04:16;;;;;;;13.80;10.63;;;13.90;90.40;;;;;;6244577;23;20000;-79
2023/03/20 02:06:44;;;;;;;12.25;10.45;;;13.80;90.20;;;;;;6244695;23;20032;-79
2023/03/20 02:09:10;;;;;;;11.93;10.65;;;13.80;90.40;;;;;;6245670;23;20004;-79
2023/03/20 02:11:37;;;;;;;12.00;10.70;;;13.80;90.40;;;;;;6245154;23;20000;-79
2023/03/20 02:14:04;;;;;;;14.13;10.93;;;13.80;90.40;;;;;;6245769;23;20007;-79
2023/03/20 02:16:29;;;;;;;11.57;10.32;;;13.80;90.60;;;;;;6245010;23;20008;-78
2023/03/20 02:18:57;;;;;;;12.82;11.32;;;13.80;90.40;;;;;;6245565;23;20011;-79
2023/03/20 02:22:06;;;;;;;12.90;10.93;;;13.80;90.50;;;;;;6244208;23;20000;-79
2023/03/20 02:24:40;;;;;;;13.23;11.38;;;13.80;90.60;;;;;;6244897;23;20016;-80
2023/03/20 02:27:12;;;;;;;13.35;11.30;;;13.80;90.70;;;;;;6245210;23;20000;-79
2023/03/20 02:30:05;;;;;;;12.35;11.07;;;13.80;90.50;;;;;;6218235;23;20500;-79
2023/03/20 02:33:05;;;;;;;13.18;10.70;;;13.80;90.70;;;;;;6245106;23;20012;-78
2023/03/20 02:35:55;;;;;;;14.50;11.60;;;13.80;90.70;;;;;;6245596;23;20103;-79
2023/03/20 02:38:33;;;;;;;13.95;11.40;;;13.80;90.70;;;;;;6244396;23;20438;-79
2023/03/20 02:41:34;;;;;;;15.27;11.00;;;13.80;90.80;;;;;;6243762;23;20059;-78
2023/03/20 02:44:22;;;;;;;15.88;11.90;;;13.80;90.90;;;;;;6233452;23;20004;-79
2023/03/20 02:47:09;;;;;;;12.18;10.40;;;13.80;90.90;;;;;;6243600;23;20000;-79
2023/03/20 02:49:57;;;;;;;12.73;11.20;;;13.80;90.90;;;;;;6244788;23;20007;-78
2023/03/20 02:52:42;;;;;;;12.25;10.63;;;13.80;91.00;;;;;;6244341;23;20000;-79
2023/03/20 02:55:38;;;;;;;16.67;11.63;;;13.80;90.90;;;;;;6244749;23;20071;-79
2023/03/20 02:58:15;;;;;;;14.63;11.13;;;13.80;91.00;;;;;;6245038;23;20019;-79
2023/03/20 03:00:56;;;;;;;14.70;11.35;;;13.80;90.90;;;;;;6217888;23;20107;-79
2023/03/20 03:03:33;;;;;;;14.07;12.07;;;13.80;91.00;;;;;;6245464;23;20021;-79
2023/03/20 03:06:07;;;;;;;15.88;13.93;;;13.80;91.00;;;;;;6243981;23;20028;-79
2023/03/20 03:08:38;;;;;;;14.90;13.32;;;13.70;90.90;;;;;;6243710;23;20020;-78
2023/03/20 03:11:07;;;;;;;15.98;12.27;;;13.50;91.10;;;;;;6244919;23;20011;-78
2023/03/20 03:13:37;;;;;;;17.02;14.45;;;13.30;91.30;;;;;;6244656;23;20028;-78
2023/03/20 03:16:15;;;;;;;16.45;14.65;;;13.10;91.40;;;;;;6245085;23;20004;-78
2023/03/20 03:18:42;;;;;;;16.67;12.10;;;13.00;91.70;;;;;;6244643;23;20081;-78
2023/03/20 03:21:12;;;;;;;13.30;11.50;;;12.90;91.80;;;;;;6244561;23;20004;-78
2023/03/20 03:23:48;;;;;;;12.82;11.25;;;13.00;91.50;;;;;;6244635;23;19997;-78
2023/03/20 03:26:24;;;;;;;13.93;11.35;;;13.00;91.60;;;;;;6218472;23;20392;-79
2023/03/20 03:29:00;;;;;;;15.38;12.23;;;13.10;91.50;;;;;;6218544;23;20008;-79
2023/03/20 03:31:28;;;;;;;12.93;11.55;;;13.20;91.50;;;;;;6244108;23;20004;-79
2023/03/20 03:33:56;;;;;;;13.45;11.00;;;13.20;91.40;;;;;;6244226;23;20000;-78
2023/03/20 03:36:31;;;;;;;13.35;10.88;;;13.20;91.10;;;;;;6244860;23;20023;-77
2023/03/20 03:39:03;;;;;;;13.25;11.20;;;13.30;91.30;;;;;;6245401;23;20000;-77
2023/03/20 03:41:38;;;;;;;14.93;11.70;;;13.30;91.30;;;;;;6219575;23;20335;-77
2023/03/20 03:44:10;;;;;;;14.63;11.57;;;13.40;91.20;;;;;;6246543;23;20118;-77
2023/03/20 03:47:23;;;;;;;13.25;11.38;;;13.40;91.10;;;;;;6246184;23;19996;-78
2023/03/20 03:49:54;;;;;;;16.67;12.80;;;13.50;90.80;;;;;;6240213;23;20418;-77
2023/03/20 03:52:23;;;;;;;14.82;11.63;;;13.50;91.00;;;;;;6246389;23;20330;-77
2023/03/20 03:55:01;;;;;;;14.43;11.68;;;13.50;90.90;;;;;;6246385;23;20347;-78
2023/03/20 03:57:33;;;;;;;12.73;11.43;;;13.60;90.90;;;;;;6247346;23;20008;-78
2023/03/20 04:00:02;;;;;;;14.05;12.55;;;13.60;90.90;;;;;;6219435;23;20004;-79
2023/03/20 04:02:28;;;;;;;15.63;12.75;;;13.60;90.90;;;;;;6246286;23;19996;-80
2023/03/20 04:04:56;;;;;;;15.88;12.93;;;13.60;91.00;;;;;;6246355;23;20010;-80
2023/03/20 04:07:26;;;;;;;14.07;11.77;;;13.60;91.00;;;;;;6246849;23;20000;-80
2023/03/20 04:09:52;;;;;;;18.50;14.55;;;13.60;91.10;;;;;;6246645;23;20007;-80
2023/03/20 04:12:39;;;;;;;15.35;13.60;;;13.40;91.30;;;;;;6246619;23;20000;-80
2023/03/20 04:15:07;;;;;;;16.65;13.82;;;13.30;91.20;;;;;;6246207;23;20000;-80
2023/03/20 04:17:33;;;;;;;15.73;13.43;;;13.20;91.20;;;;;;6246358;23;20345;-78
2023/03/20 04:19:59;;;;;;;15.50;12.80;;;13.10;91.20;;;;;;6246047;23;20006;-78
2023/03/20 04:22:25;;;;;;;15.98;13.40;;;13.10;91.10;;;;;;6246412;23;20004;-78
2023/03/20 04:24:57;;;;;;;16.33;13.13;;;13.20;91.00;;;;;;6245004;23;20130;-78
2023/03/20 04:27:23;;;;;;;17.23;13.77;;;13.20;91.00;;;;;;6245831;23;19996;-78
2023/03/20 04:29:48;;;;;;;14.23;12.57;;;13.20;91.10;;;;;;6219350;23;20011;-78
2023/03/20 04:32:14;;;;;;;15.20;12.68;;;13.30;91.10;;;;;;6245320;23;20008;-79
2023/03/20 04:34:40;;;;;;;15.35;12.23;;;13.30;91.00;;;;;;6245840;23;20007;-79
2023/03/20 04:37:07;;;;;;;15.52;12.93;;;13.40;90.90;;;;;;6246365;23;20423;-78
2023/03/20 04:39:33;;;;;;;17.25;13.65;;;13.40;90.90;;;;;;6246258;23;20011;-78
2023/03/20 04:41:59;;;;;;;15.63;13.48;;;13.40;91.20;;;;;;6246300;23;19996;-79
2023/03/20 04:44:24;;;;;;;18.13;14.20;;;13.40;90.90;;;;;;6246107;23;20006;-79
2023/03/20 04:46:50;;;;;;;16.50;13.27;;;13.40;90.80;;;;;;6245804;23;20054;-80
2023/03/20 04:49:16;;;;;;;15.70;12.65;;;13.40;90.70;;;;;;6245911;23;20012;-80
2023/03/20 04:51:41;;;;;;;18.10;14.02;;;13.50;90.60;;;;;;6245848;23;20012;-80
2023/03/20 04:54:07;;;;;;;15.57;13.57;;;13.50;90.60;;;;;;6245412;23;20004;-79
2023/03/20 04:56:33;;;;;;;22.23;14.07;;;13.50;90.60;;;;;;6246004;23;20319;-79
2023/03/20 04:58:58;;;;;;;15.88;12.50;;;13.40;90.60;;;;;;6245634;23;20054;-79
2023/03/20 05:01:24;;;;;;;13.70;12.05;;;13.40;90.50;;;;;;6245836;23;20000;-80
2023/03/20 05:03:50;;;;;;;13.75;12.10;;;13.30;90.50;;;;;;6245182;23;20027;-80
2023/03/20 05:06:16;;;;;;;19.27;14.90;;;13.30;90.50;;;;;;6245211;23;20019;-78
2023/03/20 05:08:42;;;;;;;15.70;13.10;;;13.20;90.40;;;;;;6218506;23;20023;-78
2023/03/20 05:11:09;;;;;;;19.10;13.70;;;13.20;90.50;;;;;;6219185;23;20438;-79
2023/03/20 05:13:35;;;;;;;14.77;12.90;;;13.20;90.60;;;;;;6245642;23;20000;-78
2023/03/20 05:16:01;;;;;;;17.25;14.38;;;13.20;90.60;;;;;;6245654;23;20012;-80
2023/03/20 05:18:26;;;;;;;13.43;11.50;;;13.00;90.70;;;;;;6244521;23;20411;-78
2023/03/20 05:20:52;;;;;;;15.45;12.15;;;13.00;90.80;;;;;;6244982;23;20000;-79
2023/03/20 05:23:18;;;;;;;17.30;13.15;;;12.90;90.60;;;;;;6245568;23;20000;-79
2023/03/20 05:25:44;;;;;;;15.40;11.50;;;12.90;90.70;;;;;;6245369;23;20012;-80
2023/03/20 05:28:09;;;;;;;19.58;15.55;;;12.90;90.70;;;;;;6245347;23;20043;-79
2023/03/20 05:30:35;;;;;;;16.58;14.05;;;12.60;91.10;;;;;;6217712;23;20008;-80
2023/03/20 05:33:01;;;;;;;16.55;13.05;;;12.50;91.40;;;;;;6217740;23;20008;-81
2023/03/20 05:35:27;;;;;;;17.48;14.73;;;12.50;91.40;;;;;;6244398;23;20000;-81
2023/03/20 05:37:52;;;;;;;20.95;16.23;;;12.50;91.30;;;;;;6245911;23;20000;-82
2023/03/20 05:40:19;;;;;;;21.02;16.20;;;12.50;91.30;;;;;;6245479;23;20000;-84
2023/03/20 05:42:45;;;;;;;19.58;14.32;;;12.50;91.50;;;;;;6246319;23;20027;-84
2023/03/20 05:45:11;;;;;;;16.48;13.60;;;12.50;91.50;;;;;;6246112;23;20000;-85
2023/03/20 05:47:37;;;;;;;18.67;15.38;;;12.60;91.10;;;;;;6246115;23;20098;-84
2023/03/20 05:50:03;;;;;;;19.50;14.93;;;12.60;91.10;;;;;;6247151;23;20007;-84
2023/03/20 05:52:29;;;;;;;19.65;15.48;;;12.60;91.30;;;;;;6245452;23;20004;-83
2023/03/20 05:54:55;;;;;;;23.90;15.20;;;12.60;91.40;;;;;;6246035;23;20004;-83
2023/03/20 05:57:21;;;;;;;18.27;15.27;;;12.60;91.30;;;;;;6245381;23;20000;-83
2023/03/20 05:59:47;;;;;;;16.50;13.30;;;12.60;91.40;;;;;;6244888;23;20012;-82
2023/03/20 06:02:13;;;;;;;23.38;17.67;;;12.60;91.20;;;;;;6244208;23;20134;-80
2023/03/20 06:04:38;;;;;;;19.05;14.85;;;12.60;91.20;;;;;;6215841;23;20007;-77
2023/03/20 06:07:05;;;;;;;16.90;13.55;;;12.60;91.20;;;;;;6243632;23;20004;-77
2023/03/20 06:09:31;;;;;;;16.90;13.65;;;12.60;91.10;;;;;;6243959;23;20591;-77
2023/03/20 06:11:58;;;;;;;17.23;13.70;;;12.60;91.00;;;;;;6243755;23;20008;-76
2023/03/20 06:14:24;;;;;;;16.58;13.18;;;12.70;90.70;;;;;;6244274;23;20000;-77
2023/03/20 06:16:50;;;;;;;18.77;13.52;;;12.70;90.80;;;;;;6243298;23;20011;-77
2023/03/20 06:36:34;;;;;;;17.33;14.05;;;13.10;91.10;;;;;;6220342;23;20071;-77
2023/03/20 06:39:00;;;;;;;17.63;14.40;;;13.30;90.70;;;;;;6209240;23;20005;-76
2023/03/20 06:41:26;;;;;;;20.50;14.55;;;13.40;90.10;;;;;;6210460;22;20051;-76
2023/03/20 06:43:51;;;;;;;16.77;14.75;;;13.50;90.20;;;;;;6212043;23;20326;-82
2023/03/20 06:46:17;;;;;;;18.70;14.32;;;13.50;90.10;;;;;;6212475;23;20005;-77
2023/03/20 06:48:43;;;;;;;17.92;14.05;;;13.50;90.10;;;;;;6212522;23;20000;-77
2023/03/20 06:51:08;;;;;;;19.65;15.30;;;13.50;90.00;;;;;;6183747;23;20479;-76
2023/03/20 06:53:35;;;;;;;17.75;15.18;;;13.50;90.00;;;;;;6213227;23;20007;-79
2023/03/20 06:56:01;;;;;;;17.85;14.75;;;13.60;90.00;;;;;;6212407;23;19997;-75
2023/03/20 06:58:26;;;;;;;21.65;16.05;;;13.60;90.00;;;;;;6213022;23;20071;-76
2023/03/20 07:00:53;;;;;;;21.10;15.63;;;13.60;90.00;;;;;;6213057;23;20009;-75
2023/03/20 07:03:19;;;;;;;18.52;15.40;;;13.60;90.00;;;;;;6214382;23;20077;-75
2023/03/20 07:05:45;;;;;;;18.67;15.30;;;13.60;90.00;;;;;;6214630;23;20005;-76
2023/03/20 07:08:11;;;;;;;18.42;15.68;;;13.60;90.00;;;;;;6214633;23;20087;-76
2023/03/20 07:10:37;;;;;;;20.48;15.52;;;13.60;90.10;;;;;;6214447;23;20079;-76
2023/03/20 07:13:03;;;;;;;19.15;16.30;;;13.50;90.10;;;;;;6214338;23;20007;-76
2023/03/20 07:15:29;;;;;;;19.35;15.38;;;13.50;90.20;;;;;;6216685;23;20011;-76
2023/03/20 07:17:54;;;;;;;26.65;19.73;;;13.30;90.20;;;;;;6216224;23;20306;-76
2023/03/20 07:20:21;;;;;;;18.83;15.63;;;13.30;90.10;;;;;;6216680;23;20692;-75
2023/03/20 07:22:47;;;;;;;20.08;15.00;;;13.30;90.20;;;;;;6216596;23;20072;-76
2023/03/20 07:25:14;;;;;;;20.35;15.70;;;13.30;90.20;;;;;;6216791;23;20379;-75
2023/03/20 07:27:40;;;;;;;21.73;16.67;;;13.20;90.10;;;;;;6216772;23;20392;-76
2023/03/20 07:30:07;;;;;;;21.40;15.10;;;13.30;90.20;;;;;;6216069;23;20000;-75
2023/03/20 07:32:33;;;;;;;20.40;15.57;;;13.30;90.20;;;;;;6216719;23;20004;-76
2023/03/20 07:35:00;;;;;;;22.98;16.80;;;13.20;90.20;;;;;;6190074;23;20374;-75
2023/03/20 07:37:26;;;;;;;21.73;16.25;;;13.20;90.20;;;;;;6216537;23;20012;-75
2023/03/20 07:39:51;;;;;;;18.65;15.85;;;13.20;90.20;;;;;;6216308;23;20127;-76
2023/03/20 07:42:17;;;;;;;19.65;16.05;;;13.30;90.20;;;;;;6189733;23;20015;-75
2023/03/20 07:44:43;;;;;;;18.90;15.15;;;13.30;90.30;;;;;;6216412;23;20295;-76
2023/03/20 07:47:08;;;;;;;21.63;17.63;;;13.40;90.30;;;;;;6216343;23;20047;-73
2023/03/20 07:49:34;;;;;;;20.98;15.65;;;13.40;90.20;;;;;;6216246;23;20001;-74
2023/03/20 07:52:00;;;;;;;21.88;15.70;;;13.50;90.20;;;;;;6215628;23;20055;-73
2023/03/20 07:54:26;;;;;;;20.88;16.98;;;13.50;90.10;;;;;;6216320;23;20020;-73
2023/03/20 07:56:52;;;;;;;20.42;15.43;;;13.60;90.10;;;;;;6216176;23;20024;-74
2023/03/20 07:59:18;;;;;;;18.48;14.77;;;13.50;90.00;;;;;;6215910;23;20111;-73
2023/03/20 08:01:44;;;;;;;19.00;15.27;;;13.50;90.10;;;;;;6216242;23;20423;-75
2023/03/20 08:04:10;;;;;;;23.70;16.40;;;13.50;90.10;;;;;;6215857;23;20376;-76
2023/03/20 08:06:38;;;;;;;20.48;15.73;;;13.50;90.20;;;;;;6216009;23;20423;-73
2023/03/20 08:09:05;;;;;;;19.02;15.30;;;13.50;90.20;;;;;;6215503;23;20001;-73
2023/03/20 08:11:31;;;;;;;21.83;15.02;;;13.60;90.30;;;;;;6215690;23;20001;-73
2023/03/20 08:13:57;;;;;;;18.48;15.25;;;13.70;90.30;;;;;;6189726;23;20005;-75
2023/03/20 08:16:23;;;;;;;21.65;15.15;;;13.70;90.20;;;;;;6216602;23;20007;-74
2023/03/20 08:18:49;;;;;;;19.00;14.52;;;13.80;90.20;;;;;;6216806;23;19997;-74
2023/03/20 08:21:15;;;;;;;19.65;15.57;;;13.80;90.20;;;;;;6216525;23;20005;-74
2023/03/20 08:23:41;;;;;;;20.85;15.05;;;13.80;90.20;;;;;;6215757;23;20031;-74
2023/03/20 08:26:07;;;;;;;19.77;15.02;;;13.90;90.20;;;;;;6215881;23;19996;-74
2023/03/20 08:28:33;;;;;;;21.45;14.65;;;13.90;90.10;;;;;;6215657;23;20001;-74
2023/03/20 08:30:59;;;;;;;19.45;14.30;;;14.00;90.10;;;;;;6189185;23;20143;-74
2023/03/20 08:33:24;;;;;;;19.13;14.50;;;13.90;90.20;;;;;;6215997;23;20000;-74
2023/03/20 08:35:57;;;;;;;18.23;13.40;;;14.00;90.30;;;;;;6216236;23;20008;-75
2023/03/20 08:38:24;;;;;;;20.05;14.68;;;14.10;90.30;;;;;;6216613;23;20004;-73
2023/03/20 08:40:49;;;;;;;19.50;13.57;;;14.20;90.30;;;;;;6216245;23;20012;-74
2023/03/20 08:43:16;;;;;;;18.15;14.55;;;14.20;90.30;;;;;;6216578;23;19997;-74
2023/03/20 08:45:42;;;;;;;19.58;13.52;;;14.30;90.30;;;;;;6215744;23;20008;-74
2023/03/20 08:48:08;;;;;;;21.15;14.43;;;14.30;90.20;;;;;;6216183;23;20001;-74
2023/03/20 08:50:34;;;;;;;19.95;14.20;;;14.40;90.20;;;;;;6213182;23;20474;-74
2023/03/20 08:52:59;;;;;;;20.45;14.85;;;14.40;90.30;;;;;;6215270;23;20031;-80
2023/03/20 08:55:25;;;;;;;20.58;14.05;;;14.50;90.30;;;;;;6188456;23;20008;-80
2023/03/20 08:57:53;;;;;;;25.80;15.00;;;14.50;90.20;;;;;;6215216;23;20505;-80
2023/03/20 09:00:19;;;;;;;21.27;15.30;;;14.70;90.30;;;;;;6214832;23;20028;-79
2023/03/20 09:02:45;;;;;;;18.13;13.70;;;14.70;90.30;;;;;;6215609;23;20001;-81
2023/03/20 09:05:11;;;;;;;21.52;15.13;;;14.80;90.20;;;;;;6188057;23;20015;-80
2023/03/20 09:07:37;;;;;;;20.05;13.68;;;14.90;90.10;;;;;;6188348;23;20000;-80
2023/03/20 09:10:04;;;;;;;19.70;13.48;;;14.90;90.00;;;;;;6215010;23;20446;-80
2023/03/20 09:12:32;;;;;;;22.30;14.95;;;14.90;90.00;;;;;;6215511;23;20028;-81
2023/03/20 09:14:58;;;;;;;21.85;14.55;;;15.00;89.80;;;;;;6215140;23;20000;-81
2023/03/20 09:17:25;;;;;;;21.40;14.82;;;15.00;89.60;;;;;;6215771;23;20343;-81
2023/03/20 09:19:51;;;;;;;21.75;15.52;;;15.00;89.60;;;;;;6214393;23;20018;-82
2023/03/20 09:22:17;;;;;;;24.52;15.40;;;15.10;89.50;;;;;;6215243;23;20411;-77
2023/03/20 09:24:43;;;;;;;23.55;15.65;;;15.10;89.50;;;;;;6188428;23;20011;-77
2023/03/20 09:27:12;;;;;;;20.13;13.48;;;15.10;89.60;;;;;;6215760;23;20419;-77
2023/03/20 09:29:41;;;;;;;23.08;15.10;;;15.10;89.60;;;;;;6214350;23;20016;-77
2023/03/20 09:32:10;;;;;;;20.48;13.88;;;15.20;89.60;;;;;;6215259;23;20028;-77
2023/03/20 09:34:35;;;;;;;21.98;15.40;;;15.20;89.70;;;;;;6187992;23;20039;-77
2023/03/20 09:37:02;;;;;;;19.65;13.23;;;15.20;89.70;;;;;;6213845;23;20000;-76
2023/03/20 09:39:28;;;;;;;23.25;14.35;;;15.30;89.70;;;;;;6187522;23;20040;-77
2023/03/20 09:41:54;;;;;;;19.42;13.40;;;15.30;89.70;;;;;;6239481;23;20007;-77
2023/03/20 09:44:51;;;;;;;22.02;14.57;;;15.40;89.60;;;;;;6244546;22;20000;-77
2023/03/20 09:47:39;;;;;;;21.58;13.30;;;15.40;89.50;;;;;;6234383;22;20004;-76
2023/03/20 09:50:21;;;;;;;19.95;12.25;;;15.50;89.50;;;;;;6218166;23;20416;-76
2023/03/20 09:53:10;;;;;;;19.20;12.23;;;15.50;89.30;;;;;;6246323;23;20303;-76
2023/03/20 09:55:39;;;;;;;20.30;13.00;;;15.60;89.00;;;;;;6245999;22;20004;-76
2023/03/20 09:58:12;;;;;;;21.65;13.57;;;15.60;88.60;;;;;;6215455;22;20481;-76
2023/03/20 10:00:42;;;;;;;23.67;14.32;;;15.50;88.50;;;;;;6244597;22;20358;-75
2023/03/20 10:03:17;;;;;;;24.08;13.68;;;15.50;88.60;;;;;;6245090;22;20481;-75
2023/03/20 10:05:48;;;;;;;20.23;12.27;;;15.50;88.60;;;;;;6245496;22;20000;-74
2023/03/20 10:08:15;;;;;;;19.90;11.70;;;15.50;88.70;;;;;;6245058;23;20004;-75
2023/03/20 10:10:50;;;;;;;15.98;10.35;;;15.60;88.60;;;;;;6245949;22;20015;-75
2023/03/20 10:13:34;;;;;;;15.18;10.40;;;15.60;88.30;;;;;;6245299;22;20004;-75
2023/03/20 10:16:08;;;;;;;13.75;9.57;;;15.70;88.30;;;;;;6245325;22;20008;-75
2023/03/20 10:18:39;;;;;;;20.50;11.30;;;15.80;88.20;;;;;;6217299;23;20015;-75
2023/03/20 10:21:23;;;;;;;17.88;10.57;;;15.80;87.90;;;;;;6243790;23;20011;-74
2023/03/20 10:24:02;;;;;;;17.55;9.60;;;15.80;87.70;;;;;;6245328;23;19996;-75
2023/03/20 10:26:30;;;;;;;17.27;9.45;;;15.90;87.60;;;;;;6245536;22;20000;-75
2023/03/20 10:28:59;;;;;;;14.13;9.02;;;15.90;87.00;;;;;;6245188;22;20020;-75
2023/03/20 10:31:43;;;;;;;14.48;8.90;;;15.90;86.90;;;;;;6245642;22;20024;-76
2023/03/20 10:34:59;;;;;;;12.05;8.77;;;15.90;86.50;;;;;;6244905;22;20000;-75
2023/03/20 10:37:50;;;;;;;14.35;9.52;;;16.60;86.90;;;;;;6094102;23;20082;-75
2023/03/20 10:40:29;;;;;;;15.38;9.85;;;16.00;86.50;;;;;;6093897;23;20101;-75
2023/03/20 10:43:14;;;;;;;13.23;9.68;;;16.00;86.30;;;;;;6203365;22;20000;-74
2023/03/20 10:45:47;;;;;;;14.13;8.98;;;16.10;86.30;;;;;;6245111;22;20004;-75
2023/03/20 10:48:30;;;;;;;12.65;8.38;;;16.20;86.30;;;;;;6246268;22;20000;-75
2023/03/20 10:50:58;;;;;;;14.15;9.43;;;16.20;85.80;;;;;;6247636;22;20004;-75
2023/03/20 10:53:31;;;;;;;12.70;8.73;;;16.30;85.30;;;;;;6247440;22;20008;-75
2023/03/20 10:56:02;;;;;;;12.60;8.63;;;16.30;85.30;;;;;;6247607;22;20007;-75
2023/03/20 10:58:31;;;;;;;12.25;8.82;;;16.30;85.30;;;;;;6247286;23;20038;-75
2023/03/20 11:00:58;;;;;;;16.17;9.68;;;16.30;85.40;;;;;;6247226;22;20008;-75
2023/03/20 11:03:29;;;;;;;14.90;10.73;;;16.40;85.50;;;;;;6247542;22;19997;-75
2023/03/20 11:06:05;;;;;;;13.25;9.85;;;16.40;85.70;;;;;;6220333;23;20083;-75
2023/03/20 11:08:45;;;;;;;18.75;10.82;;;16.50;86.00;;;;;;6247221;22;20330;-75
2023/03/20 11:11:11;;;;;;;15.15;9.85;;;16.50;86.00;;;;;;6220133;23;20008;-76
2023/03/20 11:13:43;;;;;;;15.48;9.32;;;16.50;86.00;;;;;;6247675;23;20035;-75
2023/03/20 11:16:09;;;;;;;15.10;10.18;;;16.50;86.10;;;;;;6247486;22;20418;-75
2023/03/20 11:18:35;;;;;;;15.30;10.52;;;16.50;86.20;;;;;;6247295;22;20004;-79
2023/03/20 11:21:02;;;;;;;13.15;9.68;;;16.60;86.40;;;;;;6247033;23;20015;-79
2023/03/20 11:23:32;;;;;;;13.40;9.60;;;16.60;86.40;;;;;;6247120;23;20054;-75
2023/03/20 11:25:59;;;;;;;14.27;9.80;;;16.60;86.30;;;;;;6247460;22;20406;-75
2023/03/20 11:28:40;;;;;;;11.25;8.55;;;16.70;86.40;;;;;;6247093;23;20006;-75
2023/03/20 11:31:12;;;;;;;13.82;9.25;;;16.70;86.50;;;;;;6220552;23;20008;-75
2023/03/20 11:33:42;;;;;;;11.77;8.02;;;16.80;86.40;;;;;;6220305;23;20077;-75
2023/03/20 11:36:24;;;;;;;13.32;8.45;;;16.80;86.30;;;;;;6247090;22;20011;-75
2023/03/20 11:38:50;;;;;;;11.95;7.68;;;16.80;86.00;;;;;;6247113;22;20062;-75
2023/03/20 11:41:27;;;;;;;13.15;8.30;;;16.90;85.70;;;;;;6246821;22;20008;-75
2023/03/20 11:43:53;;;;;;;10.75;7.50;;;16.90;85.50;;;;;;6247496;23;20068;-75
2023/03/20 11:46:23;;;;;;;8.35;6.65;;;17.00;85.40;;;;;;6246730;22;20473;-75
2023/03/20 11:49:05;;;;;;;10.25;6.63;;;17.00;85.40;;;;;;6247079;23;20005;-75
2023/03/20 11:51:34;;;;;;;8.75;6.18;;;17.00;85.00;;;;;;6247444;22;20011;-75
2023/03/20 11:54:04;;;;;;;8.48;6.45;;;17.00;84.90;;;;;;6246329;23;20007;-75
2023/03/20 11:56:31;;;;;;;9.70;6.30;;;17.00;85.00;;;;;;6246502;22;20004;-75
2023/03/20 11:59:10;;;;;;;10.27;6.25;;;17.00;84.90;;;;;;6246176;23;20004;-76
2023/03/20 12:01:43;;;;;;;7.35;5.88;;;17.00;84.60;;;;;;6246564;22;20458;-75
2023/03/20 12:04:26;;;;;;;7.50;4.90;;;17.00;84.60;;;;;;6246443;22;20000;-75
2023/03/20 12:06:56;;;;;;;5.65;4.20;;;17.10;84.60;;;;;;6246331;22;20000;-75
2023/03/20 12:09:31;;;;;;;5.68;3.78;;;17.20;84.20;;;;;;6246861;22;19996;-75
2023/03/20 12:12:15;;;;;;;6.53;4.05;;;17.20;84.00;;;;;;6246419;22;20442;-75
2023/03/20 12:14:52;;;;;;;7.05;3.72;;;17.20;83.60;;;;;;6246058;22;20007;-75
2023/03/20 12:17:25;;;;;;;5.00;3.50;;;17.30;83.10;;;;;;6246255;22;20371;-75
2023/03/20 12:19:55;;;;;;;5.70;4.05;;;17.30;82.80;;;;;;6246486;23;20476;-75
2023/03/20 12:22:36;;;;;;;;;;;17.20;82.30;;;;;;6247634;22;20012;-75
2023/03/20 12:25:20;;;;;;;8.52;5.30;;;17.30;82.50;;;;;;6247064;23;20290;-76
2023/03/20 12:27:55;;;;;;;8.70;5.13;;;17.30;82.60;;;;;;6216050;22;20075;-76
2023/03/20 12:31:00;;;;;;;10.68;5.57;;;17.30;82.70;;;;;;6243059;22;20008;-75
2023/03/20 12:33:33;;;;;;;8.40;5.95;;;17.30;82.70;;;;;;6167025;23;20326;-75
2023/03/20 12:36:00;;;;;;;9.82;7.05;;;17.30;82.80;;;;;;6216115;23;20485;-76
2023/03/20 12:38:31;;;;;;;12.90;7.40;;;17.20;83.00;;;;;;6242607;22;20010;-76
2023/03/20 12:41:26;;;;;;;8.75;6.55;;;17.20;83.30;;;;;;6240510;22;20012;-76
2023/03/20 12:44:06;;;;;;;9.18;7.22;;;17.20;83.40;;;;;;6242759;22;20066;-76
2023/03/20 12:46:38;;;;;;;10.55;7.82;;;17.10;83.40;;;;;;6242403;22;20004;-75
2023/03/20 12:49:31;;;;;;;11.75;7.78;;;17.10;83.50;;;;;;6242504;22;20015;-75
2023/03/20 12:52:22;;;;;;;11.77;7.88;;;17.10;83.70;;;;;;6242844;23;20043;-74
2023/03/20 12:54:48;;;;;;;9.35;6.75;;;17.00;83.90;;;;;;6244657;23;20007;-75
2023/03/20 12:57:13;;;;;;;12.88;7.55;;;17.00;84.10;;;;;;6244875;22;20001;-75
2023/03/20 13:00:12;;;;;;;11.85;8.27;;;17.10;84.20;;;;;;6245439;23;20382;-74
2023/03/20 13:02:59;;;;;;;12.40;8.20;;;17.20;84.20;;;;;;6244987;22;19996;-75
2023/03/20 13:06:15;;;;;;;13.73;8.43;;;17.20;83.80;;;;;;6246256;22;20041;-75
2023/03/20 13:09:12;;;;;;;14.57;8.93;;;17.40;83.90;;;;;;6138369;22;20015;-75